createdAt,value
2017-10-27T00:01:53.311Z,100570.10
2017-10-27T00:04:21.076Z,100567.63
2017-10-27T00:06:48.743Z,100564.39
2017-10-27T00:09:16.390Z,100562.29
2017-10-27T00:11:44.256Z,100563.81
2017-10-27T00:14:11.871Z,100557.61
2017-10-27T00:16:39.531Z,100547.47
2017-10-27T00:19:07.288Z,100550.88
2017-10-27T00:21:34.907Z,100549.95
2017-10-27T04:51:13.399Z,100273.41
2017-10-27T04:53:41.135Z,100276.02
2017-10-27T04:56:08.835Z,100273.63
2017-10-27T04:58:36.560Z,100273.91
2017-10-27T05:01:04.343Z,100277.96
2017-10-27T05:03:31.947Z,100272.54
2017-10-27T05:05:59.647Z,100271.61
2017-10-27T05:08:27.504Z,100272.16
2017-10-27T05:10:55.223Z,100268.75
2017-10-27T05:13:22.857Z,100277.48
2017-10-27T05:15:50.659Z,100275.88
2017-10-27T05:18:23.812Z,100277.59
2017-10-27T05:20:57.088Z,100269.32
2017-10-27T05:23:30.399Z,100268.67
2017-10-27T05:25:58.124Z,100265.95
2017-10-27T05:28:25.743Z,100272.77
2017-10-27T05:30:53.399Z,100271.72
2017-10-27T05:33:21.140Z,100266.30
2017-10-27T05:35:48.795Z,100267.09
2017-10-27T05:38:16.425Z,100267.37
2017-10-27T05:40:44.107Z,100263.25
2017-10-27T05:43:11.780Z,100256.00
2017-10-27T05:45:39.595Z,100261.69
2017-10-27T05:48:07.362Z,100259.80
2017-10-27T05:50:34.998Z,100255.17
2017-10-27T05:53:02.776Z,100250.20
2017-10-27T05:55:30.492Z,100251.33
2017-10-27T05:57:58.137Z,100255.12
2017-10-27T06:00:25.823Z,100253.27
2017-10-27T06:02:53.731Z,100259.23
2017-10-27T06:05:21.404Z,100253.56
2017-10-27T06:07:49.047Z,100251.81
2017-10-27T06:10:16.827Z,100251.78
2017-10-27T06:12:44.478Z,100247.17
2017-10-27T06:15:12.139Z,100240.30
2017-10-27T06:17:39.841Z,100246.41
2017-10-27T06:20:07.455Z,100246.71
2017-10-27T06:22:35.228Z,100251.93
2017-10-27T06:25:03.063Z,100258.36
2017-10-27T06:27:30.767Z,100253.95
2017-10-27T06:29:58.483Z,100257.23
2017-10-27T06:32:26.239Z,100254.47
2017-10-27T06:34:53.954Z,100246.58
2017-10-27T06:37:21.676Z,100238.92
2017-10-27T06:39:49.521Z,100239.66
2017-10-27T06:42:17.411Z,100227.05
2017-10-27T06:44:45.123Z,100230.23
2017-10-27T06:47:12.868Z,100227.69
2017-10-27T06:49:40.475Z,100220.63
2017-10-27T06:52:08.079Z,100217.66
2017-10-27T06:54:35.735Z,100220.57
2017-10-27T06:57:03.464Z,100220.53
2017-10-27T06:59:31.147Z,100220.66
2017-10-27T07:01:58.827Z,100211.20
2017-10-27T07:04:26.573Z,100205.64
2017-10-27T07:06:54.274Z,100205.52
2017-10-27T07:09:22.056Z,100203.20
2017-10-27T07:11:49.767Z,100198.20
2017-10-27T07:14:17.579Z,100185.91
2017-10-27T07:16:45.323Z,100184.09
2017-10-27T07:19:13.060Z,100176.31
2017-10-27T07:21:40.784Z,100172.70
2017-10-27T07:24:08.537Z,100168.63
2017-10-27T07:26:36.202Z,100166.92
2017-10-27T07:29:03.839Z,100162.65
2017-10-27T07:31:31.706Z,100160.29
2017-10-27T07:33:59.475Z,100156.41
2017-10-27T07:36:27.142Z,100141.89
2017-10-27T07:38:54.887Z,100131.58
2017-10-27T07:41:22.547Z,100132.91
2017-10-27T07:43:50.377Z,100124.13
2017-10-27T07:46:18.114Z,100120.30
2017-10-27T07:48:45.797Z,100113.92
2017-10-27T07:51:13.580Z,100112.82
2017-10-27T07:53:41.348Z,100108.02
2017-10-27T07:56:09.151Z,100103.23
2017-10-27T07:58:36.825Z,100099.94
2017-10-27T08:01:04.610Z,100094.84
2017-10-27T08:03:32.248Z,100096.64
2017-10-27T08:06:00.056Z,100091.05
2017-10-27T08:08:27.988Z,100096.69
2017-10-27T08:10:55.651Z,100081.20
2017-10-27T08:13:23.400Z,100073.98
2017-10-27T08:15:51.304Z,100071.35
2017-10-27T08:18:19.101Z,100068.50
2017-10-27T08:20:46.812Z,100061.47
2017-10-27T08:23:14.502Z,100057.52
2017-10-27T08:25:42.220Z,100053.16
2017-10-27T08:28:09.983Z,100042.12
2017-10-27T08:30:37.712Z,100038.54
2017-10-27T08:33:06.448Z,100031.52
2017-10-27T08:35:34.083Z,100024.41
2017-10-27T08:38:01.875Z,100023.86
2017-10-27T08:40:29.582Z,100025.09
2017-10-27T08:42:57.404Z,100009.35
2017-10-27T08:45:25.095Z,100007.96
2017-10-27T08:47:52.778Z,99995.70
2017-10-27T08:50:20.547Z,99994.83
2017-10-27T08:52:48.298Z,99988.94
2017-10-27T08:55:16.076Z,99984.95
2017-10-27T08:57:43.772Z,99973.62
2017-10-27T09:00:11.460Z,99972.09
2017-10-27T09:02:39.175Z,99970.25
2017-10-27T09:05:06.855Z,99962.98
2017-10-27T09:07:34.635Z,99953.45
2017-10-27T09:10:02.383Z,99951.55
2017-10-27T09:12:30.119Z,99947.98
2017-10-27T09:14:57.894Z,99947.11
2017-10-27T09:17:25.516Z,99934.98
2017-10-27T09:19:53.196Z,99934.71
2017-10-27T09:22:20.951Z,99930.45
2017-10-27T09:24:48.582Z,99916.49
2017-10-27T09:27:16.315Z,99908.96
2017-10-27T09:29:44.035Z,99917.73
2017-10-27T09:32:11.775Z,99917.36
2017-10-27T09:34:39.468Z,99913.45
2017-10-27T09:37:07.335Z,99919.84
2017-10-27T09:39:35.111Z,99912.25
2017-10-27T09:42:02.857Z,99906.75
2017-10-27T09:44:30.659Z,99908.97
2017-10-27T09:46:58.347Z,99903.66
2017-10-27T09:49:26.108Z,99897.54
2017-10-27T09:51:53.860Z,99901.35
2017-10-27T09:54:21.516Z,99895.30
2017-10-27T09:56:49.253Z,99887.53
2017-10-27T09:59:17.160Z,99881.13
2017-10-27T10:01:44.815Z,99868.30
2017-10-27T10:04:12.609Z,99871.52
2017-10-27T10:06:40.348Z,99867.89
2017-10-27T10:09:08.083Z,99862.86
2017-10-27T10:11:35.755Z,99852.64
2017-10-27T10:14:03.645Z,99852.88
2017-10-27T10:16:31.383Z,99843.83
2017-10-27T10:18:59.067Z,99843.44
2017-10-27T10:21:26.791Z,99828.92
2017-10-27T10:23:54.562Z,99823.34
2017-10-27T10:26:22.254Z,99816.92
2017-10-27T10:28:50.004Z,99814.31
2017-10-27T10:31:17.739Z,99798.45
2017-10-27T10:33:45.396Z,99798.42
2017-10-27T10:36:13.159Z,99792.76
2017-10-27T10:38:40.766Z,99778.10
2017-10-27T10:41:08.431Z,99777.69
2017-10-27T10:43:36.159Z,99775.23
2017-10-27T10:46:03.808Z,99769.05
2017-10-27T10:48:31.415Z,99758.52
2017-10-27T10:50:59.083Z,99750.95
2017-10-27T10:53:26.775Z,99750.51
2017-10-27T10:55:54.460Z,99741.75
2017-10-27T10:58:22.137Z,99739.55
2017-10-27T11:00:50.115Z,99732.83
2017-10-27T11:03:17.829Z,99723.09
2017-10-27T11:05:45.625Z,99724.18
2017-10-27T11:08:13.303Z,99714.16
2017-10-27T11:10:41.102Z,99714.15
2017-10-27T11:13:09.008Z,99707.99
2017-10-27T11:15:36.855Z,99697.16
2017-10-27T11:18:04.670Z,99694.95
2017-10-27T11:20:32.354Z,99692.16
2017-10-27T11:23:00.014Z,99693.83
2017-10-27T11:25:27.744Z,99689.19
2017-10-27T11:27:55.504Z,99682.58
2017-10-27T11:30:23.119Z,99664.49
2017-10-27T11:32:50.771Z,99659.81
2017-10-27T11:35:18.626Z,99664.38
2017-10-27T11:37:46.368Z,99656.33
2017-10-27T11:40:13.959Z,99648.28
2017-10-27T11:42:41.819Z,99639.59
2017-10-27T11:45:09.412Z,99634.16
2017-10-27T11:47:37.111Z,99638.78
2017-10-27T11:50:04.912Z,99637.31
2017-10-27T11:52:32.616Z,99619.37
2017-10-27T11:55:00.223Z,99621.80
2017-10-27T11:57:27.931Z,99606.73
2017-10-27T11:59:55.614Z,99612.02
2017-10-27T12:02:23.259Z,99597.00
2017-10-27T12:04:51.905Z,99592.69
2017-10-27T12:07:19.619Z,99591.94
2017-10-27T12:09:47.254Z,99585.30
2017-10-27T12:12:14.967Z,99585.00
2017-10-27T12:14:42.648Z,99583.45
2017-10-27T12:17:10.327Z,99580.73
2017-10-27T12:19:38.107Z,99573.82
2017-10-27T12:22:05.731Z,99568.97
2017-10-27T12:24:33.469Z,99562.26
2017-10-27T12:27:01.321Z,99557.41
2017-10-27T12:29:29.099Z,99556.00
2017-10-27T12:31:56.770Z,99554.22
2017-10-27T12:34:24.533Z,99552.68
2017-10-27T12:36:52.239Z,99542.19
2017-10-27T12:39:19.899Z,99534.32
2017-10-27T12:41:47.668Z,99521.80
2017-10-27T12:44:15.328Z,99515.47
2017-10-27T12:46:42.942Z,99510.82
2017-10-27T12:49:10.588Z,99508.46
2017-10-27T12:51:38.258Z,99505.31
2017-10-27T12:54:05.927Z,99503.12
2017-10-27T12:56:33.677Z,99494.84
2017-10-27T12:59:01.284Z,99493.30
2017-10-27T13:01:29.000Z,99490.97
2017-10-27T13:03:56.662Z,99478.06
2017-10-27T13:06:24.268Z,99476.93
2017-10-27T13:08:52.004Z,99476.18
2017-10-27T13:11:19.772Z,99477.20
2017-10-27T13:13:47.475Z,99469.74
2017-10-27T13:16:15.128Z,99466.02
2017-10-27T13:18:42.823Z,99472.12
2017-10-27T13:21:10.460Z,99479.11
2017-10-27T13:23:38.172Z,99474.86
2017-10-27T13:26:06.064Z,99469.86
2017-10-27T13:28:33.747Z,99467.50
2017-10-27T13:31:01.395Z,99460.53
2017-10-27T13:33:29.244Z,99460.77
2017-10-27T13:35:56.903Z,99462.03
2017-10-27T13:38:24.599Z,99461.63
2017-10-27T13:40:52.372Z,99450.13
2017-10-27T13:43:20.039Z,99451.19
2017-10-27T13:45:47.803Z,99444.55
2017-10-27T13:48:15.491Z,99444.31
2017-10-27T13:50:43.123Z,99437.98
2017-10-27T13:53:10.756Z,99433.41
2017-10-27T13:55:38.486Z,99426.91
2017-10-27T13:58:06.106Z,99421.50
2017-10-27T14:00:33.878Z,99420.79
2017-10-27T14:03:01.648Z,99415.38
2017-10-27T14:05:29.296Z,99418.73
2017-10-27T14:07:56.960Z,99420.80
2017-10-27T14:10:24.735Z,99411.03
2017-10-27T14:12:52.366Z,99407.95
2017-10-27T14:15:20.064Z,99405.75
2017-10-27T14:17:47.807Z,99403.14
2017-10-27T14:20:15.572Z,99395.54
2017-10-27T14:22:43.250Z,99382.37
2017-10-27T14:25:10.968Z,99383.53
2017-10-27T14:27:38.584Z,99380.91
2017-10-27T14:30:06.191Z,99376.21
2017-10-27T14:32:34.572Z,99375.36
2017-10-27T14:35:02.192Z,99375.42
2017-10-27T14:37:29.877Z,99367.98
2017-10-27T14:39:57.696Z,99362.68
2017-10-27T14:42:25.364Z,99357.02
2017-10-27T14:44:53.096Z,99358.52
2017-10-27T14:47:20.851Z,99357.35
2017-10-27T14:49:48.466Z,99355.81
2017-10-27T14:52:16.092Z,99357.33
2017-10-27T14:54:43.953Z,99342.56
2017-10-27T14:57:11.593Z,99356.34
2017-10-27T14:59:39.267Z,99348.53
2017-10-27T15:02:06.948Z,99350.88
2017-10-27T15:04:34.556Z,99347.50
2017-10-27T15:07:02.159Z,99344.29
2017-10-27T15:09:29.892Z,99342.52
2017-10-27T15:11:57.558Z,99342.39
2017-10-27T15:14:25.188Z,99342.06
2017-10-27T15:16:52.872Z,99339.23
2017-10-27T15:19:20.559Z,99341.53
2017-10-27T15:21:48.210Z,99340.16
2017-10-27T15:24:15.883Z,99340.92
2017-10-27T15:26:43.649Z,99338.07
2017-10-27T15:29:11.339Z,99332.86
2017-10-27T15:31:38.988Z,99335.03
2017-10-27T15:34:06.679Z,99329.78
2017-10-27T15:36:34.327Z,99327.28
2017-10-27T15:39:01.989Z,99325.02
2017-10-27T15:41:29.631Z,99326.05
2017-10-27T15:43:57.239Z,99326.38
2017-10-27T15:46:24.976Z,99317.62
2017-10-27T15:48:52.615Z,99320.95
2017-10-27T15:51:20.292Z,99321.95
2017-10-27T15:53:48.144Z,99323.34
2017-10-27T15:56:15.887Z,99313.98
2017-10-27T15:58:43.534Z,99314.48
2017-10-27T16:01:11.248Z,99315.26
2017-10-27T16:03:38.903Z,99313.44
2017-10-27T16:06:06.621Z,99317.73
2017-10-27T16:08:34.347Z,99321.73
2017-10-27T16:11:02.034Z,99320.20
2017-10-27T16:13:29.716Z,99324.25
2017-10-27T16:15:57.369Z,99322.28
2017-10-27T16:18:24.974Z,99318.33
2017-10-27T16:20:52.635Z,99317.31
2017-10-27T16:23:20.296Z,99313.19
2017-10-27T16:25:47.927Z,99315.39
2017-10-27T16:28:15.591Z,99315.62
2017-10-27T16:30:43.285Z,99318.55
2017-10-27T16:33:10.900Z,99313.45
2017-10-27T16:35:38.503Z,99319.05
2017-10-27T16:38:06.240Z,99319.91
2017-10-27T16:40:33.844Z,99317.51
2017-10-27T16:43:01.459Z,99316.38
2017-10-27T16:45:29.204Z,99305.05
2017-10-27T16:47:56.899Z,99301.31
2017-10-27T16:50:24.579Z,99299.55
2017-10-27T16:52:52.335Z,99290.60
2017-10-27T16:55:19.957Z,99282.16
2017-10-27T16:57:47.592Z,99282.27
2017-10-27T17:00:15.359Z,99277.67
2017-10-27T17:02:43.088Z,99277.57
2017-10-27T17:05:10.720Z,99283.67
2017-10-27T17:07:38.387Z,99279.31
2017-10-27T17:10:06.133Z,99285.20
2017-10-27T17:12:34.560Z,99278.66
2017-10-27T17:15:02.334Z,99279.03
2017-10-27T17:17:29.952Z,99276.95
2017-10-27T17:19:57.575Z,99268.39
2017-10-27T17:22:25.274Z,99260.48
2017-10-27T17:24:52.956Z,99265.27
2017-10-27T17:27:20.657Z,99257.36
2017-10-27T17:29:48.390Z,99258.05
2017-10-27T17:32:16.027Z,99250.56
2017-10-27T17:34:43.678Z,99241.52
2017-10-27T17:37:11.352Z,99245.46
2017-10-27T17:39:39.032Z,99239.54
2017-10-27T17:42:06.645Z,99230.29
2017-10-27T17:44:34.333Z,99227.10
2017-10-27T17:47:02.144Z,99222.32
2017-10-27T17:49:29.817Z,99218.27
2017-10-27T17:51:57.604Z,99217.97
2017-10-27T17:54:25.290Z,99215.98
2017-10-27T17:56:53.044Z,99210.22
2017-10-27T17:59:20.836Z,99206.98
2017-10-27T18:01:48.629Z,99202.53
2017-10-27T18:04:16.320Z,99213.69
2017-10-27T18:06:44.060Z,99217.53
2017-10-27T18:09:11.768Z,99212.66
2017-10-27T18:11:39.371Z,99211.34
2017-10-27T18:14:07.087Z,99202.61
2017-10-27T18:16:34.791Z,99206.36
2017-10-27T18:19:02.536Z,99203.72
2017-10-27T18:21:30.333Z,99206.20
2017-10-27T18:23:58.054Z,99201.33
2017-10-27T18:26:25.725Z,99200.59
2017-10-27T18:28:53.472Z,99198.66
2017-10-27T18:31:21.082Z,99191.81
2017-10-27T18:33:48.761Z,99194.75
2017-10-27T18:36:16.441Z,99195.11
2017-10-27T18:38:44.183Z,99188.39
2017-10-27T18:41:11.810Z,99184.23
2017-10-27T18:43:39.749Z,99183.09
2017-10-27T18:46:07.367Z,99183.92
2017-10-27T18:48:35.085Z,99181.64
2017-10-27T18:51:02.812Z,99179.63
2017-10-27T18:53:30.901Z,99180.35
2017-10-27T18:55:58.505Z,99177.44
2017-10-27T18:58:26.236Z,99175.85
2017-10-27T19:00:54.109Z,99170.27
2017-10-27T19:03:21.771Z,99162.03
2017-10-27T19:05:49.484Z,99158.80
2017-10-27T19:08:17.165Z,99155.33
2017-10-27T19:10:44.835Z,99154.08
2017-10-27T19:13:12.540Z,99150.13
2017-10-27T19:15:40.156Z,99141.50
2017-10-27T19:18:07.759Z,99144.78
2017-10-27T19:20:35.500Z,99148.12
2017-10-27T19:23:03.168Z,99147.48
2017-10-27T19:25:30.858Z,99140.05
2017-10-27T19:27:58.516Z,99145.46
2017-10-27T19:30:26.132Z,99135.43
2017-10-27T19:32:53.736Z,99133.87
2017-10-27T19:35:21.416Z,99131.06
2017-10-27T19:37:49.857Z,99130.02
2017-10-27T19:40:17.497Z,99124.83
2017-10-27T19:42:45.241Z,99125.14
2017-10-27T19:45:12.928Z,99116.56
2017-10-27T19:47:40.591Z,99115.26
2017-10-27T19:50:08.240Z,99118.06
2017-10-27T19:52:35.843Z,99107.53
2017-10-27T19:55:03.471Z,99111.47
2017-10-27T19:57:31.261Z,99109.97
2017-10-27T19:59:58.867Z,99101.86
2017-10-27T20:02:26.576Z,99106.19
2017-10-27T20:04:54.848Z,99105.36
2017-10-27T20:07:22.596Z,99106.75
2017-10-27T20:09:50.357Z,99107.16
2017-10-27T20:12:18.086Z,99107.00
2017-10-27T20:14:45.755Z,99107.58
2017-10-27T20:17:13.371Z,99109.45
2017-10-27T20:19:41.047Z,99104.56
2017-10-27T20:22:08.704Z,99099.48
2017-10-27T20:24:36.378Z,99100.03
2017-10-27T20:27:04.033Z,99097.03
2017-10-27T20:29:31.741Z,99094.44
2017-10-27T20:31:59.527Z,99096.72
2017-10-27T20:34:27.188Z,99092.36
2017-10-27T20:36:54.852Z,99086.06
2017-10-27T20:39:22.516Z,99080.24
2017-10-27T20:41:50.196Z,99080.56
2017-10-27T20:44:17.804Z,99075.07
2017-10-27T20:46:45.472Z,99076.36
2017-10-27T20:49:13.188Z,99075.31
2017-10-27T20:51:40.815Z,99075.31
2017-10-27T20:54:09.151Z,99068.25
2017-10-27T20:56:36.810Z,99073.66
2017-10-27T20:59:04.434Z,99067.00
2017-10-27T21:01:32.137Z,99063.27
2017-10-27T21:03:59.804Z,99066.80
2017-10-27T21:06:27.411Z,99050.96
2017-10-27T21:08:55.076Z,99056.26
2017-10-27T21:11:22.736Z,99049.13
2017-10-27T21:13:50.340Z,99048.67
2017-10-27T21:16:17.949Z,99052.20
2017-10-27T21:18:45.640Z,99052.62
2017-10-27T21:21:13.250Z,99051.17
2017-10-27T21:23:40.858Z,99046.95
2017-10-27T21:26:08.503Z,99040.83
2017-10-27T21:28:36.217Z,99045.30
2017-10-27T21:31:03.819Z,99039.08
2017-10-27T21:33:31.479Z,99036.83
2017-10-27T21:35:59.104Z,99041.92
2017-10-27T21:38:26.721Z,99039.45
2017-10-27T21:40:54.437Z,99032.39
2017-10-27T21:43:22.043Z,99026.66
2017-10-27T21:45:49.643Z,99026.45
2017-10-27T21:48:17.307Z,99019.70
2017-10-27T21:50:44.972Z,99022.14
2017-10-27T21:53:12.599Z,99022.12
2017-10-27T21:55:40.255Z,99027.38
2017-10-27T21:58:08.025Z,99028.30
2017-10-27T22:00:35.803Z,99026.64
2017-10-27T22:03:03.797Z,99028.45
2017-10-27T22:05:31.466Z,99026.37
2017-10-27T22:07:59.075Z,99028.61
2017-10-27T22:10:26.747Z,99032.24
2017-10-27T22:12:55.263Z,99027.59
2017-10-27T22:15:22.935Z,99023.63
2017-10-27T22:17:50.599Z,99029.66
2017-10-27T22:20:18.227Z,99030.91
2017-10-27T22:22:46.739Z,99032.47
2017-10-27T22:25:14.557Z,99035.48
2017-10-27T22:27:42.171Z,99039.54
2017-10-27T22:30:09.778Z,99037.93
2017-10-27T22:32:37.423Z,99054.28
2017-10-27T22:35:05.089Z,99050.87
2017-10-27T22:37:32.762Z,99060.27
2017-10-27T22:40:00.477Z,99047.19
2017-10-27T22:42:28.090Z,99051.48
2017-10-27T22:44:55.758Z,99045.57
2017-10-27T22:47:23.496Z,99053.98
2017-10-27T22:49:51.099Z,99055.13
2017-10-27T22:52:18.717Z,99054.75
2017-10-27T22:54:46.432Z,99054.75
2017-10-27T22:57:14.088Z,99064.88
2017-10-27T22:59:42.396Z,99079.31
2017-10-27T23:02:10.068Z,99086.37
2017-10-27T23:04:37.943Z,99080.34
2017-10-27T23:07:05.538Z,99082.81
2017-10-27T23:09:33.263Z,99077.56
2017-10-27T23:12:00.920Z,99088.20
2017-10-27T23:14:28.691Z,99088.45
2017-10-27T23:16:56.407Z,99094.42
2017-10-27T23:19:24.016Z,99100.47
2017-10-27T23:21:51.649Z,99105.70
2017-10-27T23:24:20.420Z,99104.73
2017-10-27T23:26:48.128Z,99108.44
2017-10-27T23:29:15.869Z,99122.13
2017-10-27T23:31:43.623Z,99130.23
2017-10-27T23:34:11.311Z,99128.41
2017-10-27T23:36:38.915Z,99137.83
2017-10-27T23:39:06.705Z,99140.17
2017-10-27T23:41:34.416Z,99152.36
2017-10-27T23:44:02.093Z,99146.21
2017-10-27T23:46:30.176Z,99157.66
2017-10-27T23:48:57.992Z,99162.41
2017-10-27T23:51:25.651Z,99156.20
2017-10-27T23:53:53.403Z,99165.11
2017-10-27T23:56:21.003Z,99172.94
2017-10-27T23:58:49.495Z,99178.27
